createdAt,value
2019-02-14T00:01:42.950Z,99463.02
2019-02-14T00:03:44.582Z,99460.05
2019-02-14T00:05:46.194Z,99459.61
2019-02-14T00:07:47.837Z,99460.90
2019-02-14T00:09:49.439Z,99455.34
2019-02-14T00:11:51.052Z,99458.77
2019-02-14T00:13:52.649Z,99458.33
2019-02-14T00:15:54.254Z,99456.62
2019-02-14T00:17:55.878Z,99449.82
2019-02-14T00:19:57.473Z,99450.67
2019-02-14T00:21:59.081Z,99451.95
2019-02-14T00:24:00.681Z,99447.67
2019-02-14T00:26:02.306Z,99456.20
2019-02-14T00:28:03.901Z,99455.37
2019-02-14T00:30:05.507Z,99454.52
2019-02-14T00:32:07.106Z,99449.40
2019-02-14T00:34:08.702Z,99449.81
2019-02-14T00:36:10.294Z,99451.08
2019-02-14T00:38:11.899Z,99454.92
2019-02-14T00:40:13.512Z,99450.29
2019-02-14T00:42:15.099Z,99451.14
2019-02-14T00:44:16.729Z,99456.24
2019-02-14T00:46:18.322Z,99463.05
2019-02-14T00:48:19.903Z,99452.80
2019-02-14T00:50:21.483Z,99458.78
2019-02-14T00:52:23.083Z,99457.50
2019-02-14T00:54:24.696Z,99448.97
2019-02-14T00:56:26.312Z,99462.19
2019-02-14T00:58:27.914Z,99459.63
2019-02-14T01:00:29.518Z,99461.33
2019-02-14T01:02:31.145Z,99463.03
2019-02-14T01:04:32.777Z,99463.90
2019-02-14T01:06:34.392Z,99465.59
2019-02-14T01:08:36.065Z,99470.70
2019-02-14T01:10:37.652Z,99470.69
2019-02-14T01:12:39.293Z,99463.01
2019-02-14T01:14:40.900Z,99468.97
2019-02-14T01:16:42.485Z,99464.72
2019-02-14T01:18:44.120Z,99470.27
2019-02-14T01:20:45.728Z,99469.42
2019-02-14T01:22:47.363Z,99473.68
2019-02-14T01:24:48.968Z,99472.81
2019-02-14T01:26:50.562Z,99477.52
2019-02-14T01:28:52.185Z,99471.12
2019-02-14T01:30:53.801Z,99473.66
2019-02-14T01:32:55.412Z,99475.38
2019-02-14T01:34:57.019Z,99476.23
2019-02-14T01:36:58.633Z,99481.77
2019-02-14T01:39:00.226Z,99478.38
2019-02-14T01:41:01.814Z,99477.52
2019-02-14T01:43:03.415Z,99474.52
2019-02-14T01:45:05.054Z,99475.80
2019-02-14T01:47:07.950Z,99474.95
2019-02-14T01:49:08.298Z,99474.09
2019-02-14T01:51:09.891Z,99480.05
2019-02-14T01:53:11.532Z,99483.05
2019-02-14T01:55:13.120Z,99482.64
2019-02-14T01:57:14.724Z,99490.74
2019-02-14T01:59:16.345Z,99485.18
2019-02-14T02:01:17.956Z,99483.06
2019-02-14T02:03:19.596Z,99483.07
2019-02-14T02:05:21.203Z,99483.05
2019-02-14T02:07:22.802Z,99483.50
2019-02-14T02:09:24.448Z,99484.36
2019-02-14T02:11:26.051Z,99482.65
2019-02-14T02:13:27.663Z,99483.48
2019-02-14T02:15:29.262Z,99480.95
2019-02-14T02:17:30.867Z,99486.03
2019-02-14T02:19:32.472Z,99480.92
2019-02-14T02:21:34.093Z,99482.20
2019-02-14T02:23:35.715Z,99477.53
2019-02-14T02:25:37.296Z,99475.40
2019-02-14T02:27:38.890Z,99470.27
2019-02-14T02:29:40.510Z,99477.09
2019-02-14T02:31:42.157Z,99466.45
2019-02-14T02:33:43.754Z,99471.57
2019-02-14T02:35:45.370Z,99462.59
2019-02-14T02:37:46.988Z,99466.87
2019-02-14T02:39:48.586Z,99468.56
2019-02-14T02:41:50.192Z,99462.18
2019-02-14T02:43:51.827Z,99467.72
2019-02-14T02:45:53.431Z,99465.16
2019-02-14T02:47:55.045Z,99472.41
2019-02-14T02:49:56.675Z,99469.84
2019-02-14T02:51:58.271Z,99474.09
2019-02-14T02:53:59.888Z,99473.66
2019-02-14T02:56:01.482Z,99476.66
2019-02-14T02:58:03.087Z,99478.77
2019-02-14T03:00:04.724Z,99477.97
2019-02-14T03:02:06.332Z,99481.36
2019-02-14T03:04:07.954Z,99481.77
2019-02-14T03:06:10.872Z,99480.08
2019-02-14T03:08:11.208Z,99480.50
2019-02-14T03:10:12.828Z,99481.75
2019-02-14T03:12:14.440Z,99489.03
2019-02-14T03:14:16.072Z,99496.27
2019-02-14T03:16:17.666Z,99491.58
2019-02-14T03:18:19.265Z,99490.72
2019-02-14T03:20:20.862Z,99490.75
2019-02-14T03:22:22.467Z,99495.45
2019-02-14T03:24:24.062Z,99492.46
2019-02-14T03:26:25.699Z,99503.99
2019-02-14T03:28:27.330Z,99500.16
2019-02-14T03:30:28.917Z,99498.47
2019-02-14T03:32:30.569Z,99497.17
2019-02-14T03:34:32.188Z,99499.30
2019-02-14T03:36:33.800Z,99496.30
2019-02-14T03:38:35.397Z,99498.87
2019-02-14T03:40:36.990Z,99506.96
2019-02-14T03:42:38.594Z,99501.84
2019-02-14T03:44:40.222Z,99504.00
2019-02-14T03:46:41.818Z,99508.63
2019-02-14T03:48:43.448Z,99513.70
2019-02-14T03:50:45.041Z,99480.89
2019-02-14T03:52:46.638Z,99524.77
2019-02-14T03:54:48.277Z,99521.38
2019-02-14T03:56:49.892Z,99515.50
2019-02-14T03:58:51.513Z,99513.77
2019-02-14T04:00:53.098Z,99518.48
2019-02-14T04:02:54.701Z,99520.61
2019-02-14T04:04:56.832Z,99524.88
2019-02-14T04:06:58.431Z,99524.02
2019-02-14T04:09:00.172Z,99521.89
2019-02-14T04:11:01.776Z,99522.30
2019-02-14T04:13:03.388Z,99518.89
2019-02-14T04:15:05.007Z,99519.33
2019-02-14T04:17:06.602Z,99260.84
2019-02-14T04:19:08.212Z,99517.20
2019-02-14T04:21:09.805Z,99516.36
2019-02-14T04:23:11.415Z,99515.50
2019-02-14T04:25:13.041Z,99518.47
2019-02-14T04:27:14.650Z,99506.14
2019-02-14T04:29:16.253Z,99512.50
2019-02-14T04:31:17.890Z,99513.78
2019-02-14T04:33:19.481Z,99509.09
2019-02-14T04:35:21.082Z,99509.55
2019-02-14T04:37:22.723Z,99500.13
2019-02-14T04:39:24.345Z,99497.13
2019-02-14T04:41:25.951Z,99492.88
2019-02-14T04:43:27.561Z,99487.78
2019-02-14T04:45:29.179Z,99503.08
2019-02-14T04:47:30.774Z,99499.67
2019-02-14T04:49:32.392Z,99513.73
2019-02-14T04:51:34.018Z,99509.45
2019-02-14T04:53:35.619Z,99517.99
2019-02-14T04:55:39.062Z,99517.13
2019-02-14T04:57:38.872Z,99516.27
2019-02-14T04:59:40.483Z,99514.12
2019-02-14T05:01:42.077Z,99510.28
2019-02-14T05:03:43.688Z,99504.33
2019-02-14T05:05:45.295Z,99508.16
2019-02-14T05:07:46.890Z,99509.01
2019-02-14T05:09:48.518Z,99510.26
2019-02-14T05:11:50.153Z,99508.14
2019-02-14T05:13:51.736Z,99510.24
2019-02-14T05:15:53.329Z,99505.14
2019-02-14T05:17:54.912Z,99508.09
2019-02-14T05:19:56.515Z,99515.75
2019-02-14T05:21:58.113Z,99516.57
2019-02-14T05:23:59.745Z,99517.00
2019-02-14T05:26:01.355Z,99514.86
2019-02-14T05:28:02.953Z,99505.95
2019-02-14T05:30:04.588Z,99506.77
2019-02-14T05:32:06.192Z,99515.72
2019-02-14T05:34:07.841Z,99521.27
2019-02-14T05:36:09.451Z,99527.65
2019-02-14T05:38:11.038Z,99528.48
2019-02-14T05:40:12.639Z,99537.42
2019-02-14T05:42:14.288Z,99532.34
2019-02-14T05:44:15.905Z,99531.48
2019-02-14T05:46:17.510Z,99537.46
2019-02-14T05:48:19.143Z,99539.16
2019-02-14T05:50:20.739Z,99541.30
2019-02-14T05:52:22.351Z,99541.27
2019-02-14T05:54:23.978Z,99543.82
2019-02-14T05:56:25.590Z,99546.83
2019-02-14T05:58:27.199Z,99554.89
2019-02-14T06:00:28.803Z,99562.14
2019-02-14T06:02:32.144Z,99563.81
2019-02-14T06:04:32.059Z,99561.27
2019-02-14T06:06:33.684Z,99561.27
2019-02-14T06:08:35.278Z,99561.27
2019-02-14T06:10:36.873Z,99568.94
2019-02-14T06:12:38.471Z,99565.52
2019-02-14T06:14:40.066Z,99566.37
2019-02-14T06:16:41.686Z,99568.08
2019-02-14T06:18:43.288Z,99564.67
2019-02-14T06:20:44.929Z,99574.05
2019-02-14T06:22:46.526Z,99569.78
2019-02-14T06:24:48.149Z,99565.95
2019-02-14T06:26:49.759Z,99566.39
2019-02-14T06:28:51.358Z,99576.58
2019-02-14T06:30:52.954Z,99577.03
2019-02-14T06:32:54.550Z,99579.14
2019-02-14T06:34:56.163Z,99574.44
2019-02-14T06:36:57.780Z,99580.41
2019-02-14T06:38:59.383Z,99581.69
2019-02-14T06:41:00.992Z,99591.48
2019-02-14T06:43:02.589Z,99594.45
2019-02-14T06:45:04.196Z,99600.42
2019-02-14T06:47:05.781Z,99599.58
2019-02-14T06:49:07.402Z,99604.68
2019-02-14T06:51:09.004Z,99602.98
2019-02-14T06:53:10.627Z,99608.94
2019-02-14T06:55:12.225Z,99611.49
2019-02-14T06:57:13.818Z,99613.59
2019-02-14T06:59:15.452Z,99616.17
2019-02-14T07:01:17.074Z,99611.91
2019-02-14T07:03:18.684Z,99610.65
2019-02-14T07:05:20.278Z,99607.66
2019-02-14T07:07:21.864Z,99606.38
2019-02-14T07:09:23.474Z,99611.49
2019-02-14T07:11:25.069Z,99614.46
2019-02-14T07:13:26.656Z,99610.64
2019-02-14T07:15:28.287Z,99616.58
2019-02-14T07:17:29.892Z,99618.72
2019-02-14T07:19:31.504Z,99617.00
2019-02-14T07:21:33.140Z,99613.20
2019-02-14T07:23:34.765Z,99606.79
2019-02-14T07:25:36.357Z,99609.34
2019-02-14T07:27:37.972Z,99605.07
2019-02-14T07:29:39.646Z,99603.79
2019-02-14T07:31:41.239Z,99606.79
2019-02-14T07:33:42.838Z,99611.04
2019-02-14T07:35:44.472Z,99608.50
2019-02-14T07:37:46.075Z,99606.78
2019-02-14T07:39:47.670Z,99604.66
2019-02-14T07:41:49.290Z,99614.02
2019-02-14T07:43:50.895Z,99616.58
2019-02-14T07:45:52.517Z,99615.70
2019-02-14T07:47:54.100Z,99624.23
2019-02-14T07:49:55.694Z,99629.33
2019-02-14T07:51:57.304Z,99622.52
2019-02-14T07:53:58.952Z,99631.86
2019-02-14T07:56:00.564Z,99632.30
2019-02-14T07:58:02.161Z,99634.41
2019-02-14T08:00:03.768Z,99631.00
2019-02-14T08:02:05.356Z,99628.88
2019-02-14T08:04:06.946Z,99625.91
2019-02-14T08:06:08.589Z,99627.60
2019-02-14T08:08:10.189Z,99628.45
2019-02-14T08:10:11.786Z,99632.28
2019-02-14T08:12:13.406Z,99635.69
2019-02-14T08:14:14.989Z,99648.88
2019-02-14T08:16:16.604Z,99641.21
2019-02-14T08:18:18.202Z,99643.34
2019-02-14T08:20:19.808Z,99652.72
2019-02-14T08:22:21.424Z,99651.44
2019-02-14T08:24:23.058Z,99653.97
2019-02-14T08:26:24.668Z,99655.70
2019-02-14T08:28:26.334Z,99654.00
2019-02-14T08:30:27.939Z,99654.86
2019-02-14T08:32:29.541Z,99660.44
2019-02-14T08:34:31.138Z,99665.58
2019-02-14T08:36:32.758Z,99665.95
2019-02-14T08:38:34.349Z,99662.53
2019-02-14T08:40:35.934Z,99657.00
2019-02-14T08:42:37.540Z,99654.00
2019-02-14T08:44:39.137Z,99648.91
2019-02-14T08:46:40.771Z,99642.11
2019-02-14T08:48:42.384Z,99637.02
2019-02-14T08:50:43.995Z,99631.98
2019-02-14T08:52:45.599Z,99632.87
2019-02-14T08:54:47.198Z,99627.77
2019-02-14T08:56:48.790Z,99632.08
2019-02-14T08:58:50.384Z,99621.45
2019-02-14T09:00:51.996Z,99609.14
2019-02-14T09:02:53.599Z,99613.80
2019-02-14T09:04:55.204Z,99620.63
2019-02-14T09:06:56.856Z,99621.52
2019-02-14T09:08:58.464Z,99620.27
2019-02-14T09:11:00.081Z,99617.72
2019-02-14T09:13:01.706Z,99616.44
2019-02-14T09:15:03.307Z,99621.54
2019-02-14T09:17:04.911Z,99626.23
2019-02-14T09:19:06.538Z,99631.37
2019-02-14T09:21:08.136Z,99644.14
2019-02-14T09:23:09.730Z,99639.88
2019-02-14T09:25:11.321Z,99640.74
2019-02-14T09:27:12.933Z,99640.73
2019-02-14T09:29:14.533Z,99641.59
2019-02-14T09:31:16.175Z,99641.58
2019-02-14T09:33:17.770Z,99633.09
2019-02-14T09:35:19.366Z,99637.33
2019-02-14T09:37:20.971Z,99633.49
2019-02-14T09:39:22.570Z,99626.25
2019-02-14T09:41:24.165Z,99625.41
2019-02-14T09:43:29.853Z,99625.42
2019-02-14T09:45:27.442Z,99622.00
2019-02-14T09:47:29.060Z,99630.94
2019-02-14T09:49:30.707Z,99633.95
2019-02-14T09:51:32.319Z,99618.59
2019-02-14T09:53:33.942Z,99616.03
2019-02-14T09:55:35.561Z,99610.09
2019-02-14T09:57:37.166Z,99604.98
2019-02-14T09:59:38.748Z,99601.14
2019-02-14T10:01:40.379Z,99601.55
2019-02-14T10:03:41.990Z,99612.66
2019-02-14T10:05:43.615Z,99616.05
2019-02-14T10:07:45.250Z,99622.88
2019-02-14T10:09:47.705Z,99621.59
2019-02-14T10:11:49.328Z,99617.33
2019-02-14T10:13:50.963Z,99616.89
2019-02-14T10:15:52.580Z,99619.89
2019-02-14T10:17:54.247Z,99627.56
2019-02-14T10:19:56.006Z,99623.72
2019-02-14T10:21:57.605Z,99630.55
2019-02-14T10:23:59.226Z,99640.34
2019-02-14T10:26:00.821Z,99650.13
2019-02-14T10:28:02.422Z,99657.40
2019-02-14T10:30:04.065Z,99659.09
2019-02-14T10:32:05.665Z,99663.35
2019-02-14T10:34:07.263Z,99668.88
2019-02-14T10:36:08.895Z,99668.84
2019-02-14T10:38:10.488Z,99674.83
2019-02-14T10:40:12.096Z,99676.50
2019-02-14T10:42:13.722Z,99676.94
2019-02-14T10:44:15.319Z,99679.06
2019-02-14T10:46:16.952Z,99667.11
2019-02-14T10:48:18.550Z,99660.73
2019-02-14T10:50:20.160Z,99666.66
2019-02-14T10:52:21.780Z,99667.91
2019-02-14T10:54:23.373Z,99686.25
2019-02-14T10:56:24.955Z,99655.18
2019-02-14T10:58:26.583Z,99650.09
2019-02-14T11:00:28.196Z,99638.61
2019-02-14T11:02:29.784Z,99637.75
2019-02-14T11:04:31.391Z,99634.75
2019-02-14T11:06:33.004Z,99634.33
2019-02-14T11:08:34.660Z,99630.50
2019-02-14T11:10:36.262Z,99633.47
2019-02-14T11:12:37.848Z,99631.34
2019-02-14T11:14:39.442Z,99638.58
2019-02-14T11:16:41.038Z,99633.04
2019-02-14T11:18:44.606Z,99619.36
2019-02-14T11:20:44.344Z,99609.58
2019-02-14T11:22:45.924Z,99602.80
2019-02-14T11:24:47.524Z,99552.92
2019-02-14T11:26:49.739Z,99574.69
2019-02-14T11:28:51.324Z,99574.28
2019-02-14T11:30:52.917Z,99573.02
2019-02-14T11:32:55.420Z,99570.02
2019-02-14T11:34:57.031Z,99558.09
2019-02-14T11:36:58.671Z,99546.16
2019-02-14T11:39:00.316Z,99549.16
2019-02-14T11:41:01.927Z,99557.25
2019-02-14T11:43:03.539Z,99563.64
2019-02-14T11:45:05.156Z,99547.02
2019-02-14T11:47:07.841Z,99543.61
2019-02-14T11:49:08.418Z,99535.94
2019-02-14T11:51:10.092Z,99530.41
2019-02-14T11:53:14.200Z,99535.11
2019-02-14T11:55:13.329Z,99533.81
2019-02-14T11:57:14.958Z,99532.54
2019-02-14T11:59:16.882Z,99534.25
2019-02-14T12:01:18.569Z,99532.55
2019-02-14T12:03:20.179Z,99524.44
2019-02-14T12:05:21.774Z,99520.19
2019-02-14T12:07:23.412Z,99513.37
2019-02-14T12:09:24.995Z,99507.82
2019-02-14T12:11:26.593Z,99503.14
2019-02-14T12:13:28.205Z,99499.30
2019-02-14T12:15:29.830Z,99496.77
2019-02-14T12:17:31.479Z,99505.28
2019-02-14T12:19:33.068Z,99508.25
2019-02-14T12:21:34.662Z,99517.22
2019-02-14T12:23:36.295Z,99518.91
2019-02-14T12:25:37.964Z,99521.47
2019-02-14T12:27:39.615Z,99521.04
2019-02-14T12:29:41.223Z,99529.56
2019-02-14T12:31:42.823Z,99530.38
2019-02-14T12:33:44.450Z,99532.10
2019-02-14T12:35:46.105Z,99532.95
2019-02-14T12:37:47.725Z,99541.87
2019-02-14T12:39:49.634Z,99544.84
2019-02-14T12:41:51.332Z,99545.25
2019-02-14T12:43:52.986Z,99546.54
2019-02-14T12:45:54.576Z,99546.95
2019-02-14T12:47:56.175Z,99511.16
2019-02-14T12:49:57.769Z,99541.00
2019-02-14T12:51:59.365Z,99543.97
2019-02-14T12:54:01.003Z,99548.22
2019-02-14T12:56:02.591Z,99550.79
2019-02-14T12:58:04.219Z,99550.36
2019-02-14T13:00:05.829Z,99544.41
2019-02-14T13:02:07.416Z,99548.23
2019-02-14T13:04:09.044Z,99557.17
2019-02-14T13:06:10.654Z,99557.59
2019-02-14T13:08:12.309Z,99564.40
2019-02-14T13:10:13.906Z,99562.70
2019-02-14T13:12:15.498Z,99563.55
2019-02-14T13:14:17.101Z,99558.41
2019-02-14T13:16:18.710Z,99548.63
2019-02-14T13:18:20.305Z,99552.89
2019-02-14T13:20:21.936Z,99555.00
2019-02-14T13:22:23.535Z,99553.30
2019-02-14T13:24:25.120Z,99559.27
2019-02-14T13:26:26.730Z,99557.56
2019-02-14T13:28:28.336Z,99554.58
2019-02-14T13:30:29.956Z,99549.47
2019-02-14T13:32:31.564Z,99544.37
2019-02-14T13:34:33.180Z,99536.69
2019-02-14T13:36:34.798Z,99539.23
2019-02-14T13:38:36.443Z,99540.52
2019-02-14T13:40:38.047Z,99540.11
2019-02-14T13:42:39.658Z,99547.33
2019-02-14T13:44:43.072Z,99543.06
2019-02-14T13:46:42.920Z,99543.50
2019-02-14T13:48:44.514Z,99539.23
2019-02-14T13:50:46.137Z,99534.12
2019-02-14T13:52:47.734Z,99534.55
2019-02-14T13:54:49.315Z,99527.30
2019-02-14T13:56:54.082Z,99537.06
2019-02-14T13:58:52.566Z,99537.50
2019-02-14T14:00:54.149Z,99540.03
2019-02-14T14:02:55.797Z,99531.55
2019-02-14T14:04:57.374Z,99535.35
2019-02-14T14:06:58.970Z,99522.61
2019-02-14T14:09:00.569Z,99519.18
2019-02-14T14:11:02.175Z,99519.61
2019-02-14T14:13:03.814Z,99524.72
2019-02-14T14:15:05.412Z,99522.56
2019-02-14T14:17:07.006Z,99522.56
2019-02-14T14:19:08.598Z,99522.56
2019-02-14T14:21:10.199Z,99519.98
2019-02-14T14:23:11.802Z,99520.81
2019-02-14T14:25:13.495Z,99520.36
2019-02-14T14:27:15.158Z,99523.75
2019-02-14T14:29:16.803Z,99518.61
2019-02-14T14:31:18.428Z,99538.59
2019-02-14T14:33:20.032Z,99527.56
2019-02-14T14:35:21.672Z,99522.89
2019-02-14T14:37:23.270Z,99529.72
2019-02-14T14:39:24.875Z,99528.02
2019-02-14T14:41:26.487Z,99519.52
2019-02-14T14:43:28.579Z,99520.79
2019-02-14T14:45:35.844Z,99522.09
2019-02-14T14:47:37.442Z,99516.98
2019-02-14T14:49:39.069Z,99517.41
2019-02-14T14:51:40.692Z,99508.09
2019-02-14T14:53:42.313Z,99509.01
2019-02-14T14:55:44.002Z,99515.42
2019-02-14T14:57:45.598Z,99510.74
2019-02-14T14:59:47.222Z,99475.84
2019-02-14T15:01:48.832Z,99512.52
2019-02-14T15:03:52.226Z,99508.70
2019-02-14T15:05:52.611Z,99502.28
2019-02-14T15:07:54.206Z,99498.87
2019-02-14T15:09:57.737Z,99499.29
2019-02-14T15:11:57.784Z,99492.89
2019-02-14T15:13:59.466Z,99489.48
2019-02-14T15:16:01.056Z,99492.89
2019-02-14T15:18:02.656Z,99489.92
2019-02-14T15:20:04.303Z,99484.38
2019-02-14T15:22:06.635Z,99484.36
2019-02-14T15:24:08.234Z,99484.80
2019-02-14T15:26:09.866Z,99487.34
2019-02-14T15:28:11.467Z,99485.22
2019-02-14T15:30:13.081Z,99477.98
2019-02-14T15:32:14.678Z,99483.93
2019-02-14T15:34:16.276Z,99482.20
2019-02-14T15:36:17.893Z,99482.20
2019-02-14T15:38:19.518Z,99484.73
2019-02-14T15:40:21.139Z,99484.36
2019-02-14T15:42:22.755Z,99483.05
2019-02-14T15:44:24.387Z,99485.19
2019-02-14T15:46:26.054Z,99487.28
2019-02-14T15:48:27.737Z,99470.70
2019-02-14T15:50:30.005Z,99486.03
2019-02-14T15:52:32.232Z,99454.50
2019-02-14T15:54:33.169Z,99490.30
2019-02-14T15:56:34.315Z,99486.45
2019-02-14T15:58:35.937Z,99487.70
2019-02-14T16:00:37.519Z,99480.88
2019-02-14T16:02:39.135Z,99485.56
2019-02-14T16:04:40.734Z,99481.28
2019-02-14T16:06:42.339Z,99480.86
2019-02-14T16:08:44.631Z,99477.89
2019-02-14T16:10:45.643Z,99478.73
2019-02-14T16:12:47.258Z,99480.88
2019-02-14T16:14:48.840Z,99483.01
2019-02-14T16:16:50.517Z,99480.44
2019-02-14T16:18:52.118Z,99485.13
2019-02-14T16:20:53.715Z,99481.70
2019-02-14T16:22:55.349Z,99490.23
2019-02-14T16:24:56.965Z,99486.00
2019-02-14T16:26:59.199Z,99483.44
2019-02-14T16:29:02.026Z,99489.83
2019-02-14T16:31:02.000Z,99480.03
2019-02-14T16:33:03.639Z,99479.17
2019-02-14T16:35:05.287Z,99483.88
2019-02-14T16:37:06.956Z,99487.71
2019-02-14T16:39:08.567Z,99488.58
2019-02-14T16:41:10.196Z,99489.42
2019-02-14T16:43:11.833Z,99492.83
2019-02-14T16:45:13.435Z,99497.52
2019-02-14T16:47:15.045Z,99496.66
2019-02-14T16:49:16.647Z,99493.27
2019-02-14T16:51:18.296Z,99491.99
2019-02-14T16:53:19.893Z,99489.44
2019-02-14T16:55:21.496Z,99494.98
2019-02-14T16:57:23.140Z,99494.10
2019-02-14T16:59:24.752Z,99498.36
2019-02-14T17:01:26.359Z,99497.95
2019-02-14T17:03:28.716Z,99502.62
2019-02-14T17:05:30.337Z,99506.45
2019-02-14T17:07:31.971Z,99509.42
2019-02-14T17:09:33.586Z,99507.73
2019-02-14T17:11:35.190Z,99508.56
2019-02-14T17:13:36.801Z,99510.28
2019-02-14T17:15:38.432Z,99509.84
2019-02-14T17:17:40.024Z,99512.39
2019-02-14T17:19:41.646Z,99514.48
2019-02-14T17:21:43.252Z,99514.05
2019-02-14T17:23:44.889Z,99510.22
2019-02-14T17:25:46.487Z,99512.25
2019-02-14T17:27:48.102Z,99505.34
2019-02-14T17:29:49.702Z,99509.53
2019-02-14T17:31:51.294Z,99509.95
2019-02-14T17:33:52.989Z,99509.04
2019-02-14T17:35:54.576Z,99509.81
2019-02-14T17:37:56.179Z,99512.30
2019-02-14T17:39:57.812Z,99509.27
2019-02-14T17:41:59.420Z,99511.33
2019-02-14T17:44:01.041Z,99502.73
2019-02-14T17:46:02.675Z,99498.87
2019-02-14T17:48:04.288Z,99498.85
2019-02-14T17:50:05.874Z,99491.56
2019-02-14T17:52:07.475Z,99498.83
2019-02-14T17:54:09.060Z,99500.11
2019-02-14T17:56:10.725Z,99504.41
2019-02-14T17:58:12.359Z,99512.41
2019-02-14T18:00:13.952Z,99514.34
2019-02-14T18:02:16.127Z,99518.89
2019-02-14T18:04:17.726Z,99522.21
2019-02-14T18:06:19.332Z,99529.88
2019-02-14T18:08:20.916Z,99526.84
2019-02-14T18:10:22.524Z,99524.73
2019-02-14T18:12:24.117Z,99522.16
2019-02-14T18:14:25.715Z,99516.59
2019-02-14T18:16:27.317Z,99516.40
2019-02-14T18:18:28.938Z,99476.40
2019-02-14T18:20:30.553Z,99513.00
2019-02-14T18:22:32.301Z,99514.95
2019-02-14T18:24:34.008Z,99510.94
2019-02-14T18:26:35.640Z,99511.80
2019-02-14T18:28:37.237Z,99510.23
2019-02-14T18:30:38.830Z,99487.71
2019-02-14T18:32:40.468Z,99502.88
2019-02-14T18:34:42.071Z,99502.84
2019-02-14T18:36:43.684Z,99508.08
2019-02-14T18:38:45.300Z,99507.23
2019-02-14T18:40:46.992Z,99512.22
2019-02-14T18:42:48.644Z,99506.64
2019-02-14T18:44:50.292Z,99502.97
2019-02-14T18:46:51.890Z,99505.21
2019-02-14T18:48:53.585Z,99500.48
2019-02-14T18:50:55.221Z,99503.93
2019-02-14T18:52:56.836Z,99500.06
2019-02-14T18:54:58.432Z,99498.64
2019-02-14T18:57:00.026Z,99492.28
2019-02-14T18:59:01.640Z,99500.89
2019-02-14T19:01:03.281Z,99498.59
2019-02-14T19:03:04.900Z,99499.36
2019-02-14T19:05:06.505Z,99497.53
2019-02-14T19:07:08.354Z,99490.49
2019-02-14T19:09:10.047Z,99490.92
2019-02-14T19:11:15.153Z,99492.91
2019-02-14T19:13:13.341Z,99490.28
2019-02-14T19:15:14.952Z,99486.48
2019-02-14T19:17:16.546Z,99493.83
2019-02-14T19:19:18.212Z,99491.67
2019-02-14T19:21:19.910Z,99491.16
2019-02-14T19:23:24.266Z,99486.19
2019-02-14T19:25:23.352Z,99485.07
2019-02-14T19:27:24.959Z,99489.05
2019-02-14T19:29:26.566Z,99483.09
2019-02-14T19:31:28.199Z,99483.13
2019-02-14T19:33:29.836Z,99482.98
2019-02-14T19:35:31.439Z,99488.19
2019-02-14T19:37:33.043Z,99488.33
2019-02-14T19:39:34.637Z,99490.09
2019-02-14T19:41:36.257Z,99488.75
2019-02-14T19:43:37.861Z,99487.07
2019-02-14T19:45:39.490Z,99485.33
2019-02-14T19:47:41.153Z,99482.47
2019-02-14T19:49:42.754Z,99483.92
2019-02-14T19:51:44.376Z,99482.91
2019-02-14T19:53:46.041Z,99483.92
2019-02-14T19:55:47.712Z,99480.84
2019-02-14T19:57:49.344Z,99479.32
2019-02-14T19:59:50.991Z,99478.98
2019-02-14T20:01:52.598Z,99479.02
2019-02-14T20:03:54.197Z,99482.08
2019-02-14T20:05:55.818Z,99481.92
2019-02-14T20:07:57.468Z,99480.48
2019-02-14T20:09:59.108Z,99479.11
2019-02-14T20:12:00.717Z,99480.33
2019-02-14T20:14:02.363Z,99480.33
2019-02-14T20:16:04.884Z,99481.40
2019-02-14T20:18:05.632Z,99476.83
2019-02-14T20:20:07.296Z,99484.39
2019-02-14T20:22:08.887Z,99486.02
2019-02-14T20:24:10.481Z,99482.10
2019-02-14T20:26:12.078Z,99489.31
2019-02-14T20:28:13.723Z,99487.95
2019-02-14T20:30:15.337Z,99490.05
2019-02-14T20:32:16.980Z,99490.05
2019-02-14T20:34:18.575Z,99493.42
2019-02-14T20:36:20.202Z,99494.25
2019-02-14T20:38:21.883Z,99481.70
2019-02-14T20:40:23.489Z,99487.78
2019-02-14T20:42:25.091Z,99486.97
2019-02-14T20:44:26.723Z,99486.98
2019-02-14T20:46:28.337Z,99488.41
2019-02-14T20:48:29.944Z,99486.05
2019-02-14T20:50:31.582Z,99485.11
2019-02-14T20:52:33.183Z,99482.45
2019-02-14T20:54:34.796Z,99462.28
2019-02-14T20:56:36.417Z,99487.42
2019-02-14T20:58:38.075Z,99490.41
2019-02-14T21:00:39.693Z,99484.00
2019-02-14T21:02:41.295Z,99490.41
2019-02-14T21:04:42.899Z,99484.84
2019-02-14T21:06:44.513Z,99490.41
2019-02-14T21:08:46.146Z,99489.89
2019-02-14T21:10:47.756Z,99484.88
2019-02-14T21:12:49.372Z,99485.92
2019-02-14T21:14:50.984Z,99485.73
2019-02-14T21:16:52.603Z,99481.22
2019-02-14T21:18:54.238Z,99485.27
2019-02-14T21:20:55.925Z,99487.78
2019-02-14T21:22:57.532Z,99487.36
2019-02-14T21:24:59.191Z,99453.23
2019-02-14T21:27:00.784Z,99481.52
2019-02-14T21:29:02.382Z,99488.63
2019-02-14T21:31:04.036Z,99484.21
2019-02-14T21:33:05.678Z,99479.52
2019-02-14T21:35:07.306Z,99478.25
2019-02-14T21:37:08.984Z,99485.45
2019-02-14T21:39:10.589Z,99490.72
2019-02-14T21:41:12.191Z,99485.09
2019-02-14T21:43:13.841Z,99491.17
2019-02-14T21:45:15.493Z,99490.36
2019-02-14T21:47:17.178Z,99486.53
2019-02-14T21:49:18.792Z,99487.75
2019-02-14T21:51:20.414Z,99499.05
2019-02-14T21:53:22.049Z,99496.33
2019-02-14T21:55:23.696Z,99495.20
2019-02-14T21:57:25.327Z,99497.53
2019-02-14T21:59:26.996Z,99489.91
2019-02-14T22:01:28.626Z,99493.76
2019-02-14T22:03:30.253Z,99487.38
2019-02-14T22:05:32.246Z,99485.25
2019-02-14T22:07:35.189Z,99487.81
2019-02-14T22:09:35.528Z,99489.09
2019-02-14T22:11:37.169Z,99491.20
2019-02-14T22:13:38.788Z,99489.50
2019-02-14T22:15:40.405Z,99495.89
2019-02-14T22:17:42.053Z,99490.78
2019-02-14T22:19:43.646Z,99494.61
2019-02-14T22:21:45.237Z,99499.73
2019-02-14T22:23:46.844Z,99490.77
2019-02-14T22:25:48.452Z,99495.88
2019-02-14T22:27:50.049Z,99496.75
2019-02-14T22:29:51.674Z,99483.11
2019-02-14T22:31:53.277Z,99500.58
2019-02-14T22:33:55.143Z,99498.45
2019-02-14T22:35:56.836Z,99498.87
2019-02-14T22:37:58.472Z,99499.72
2019-02-14T22:40:00.145Z,99496.73
2019-02-14T22:42:01.739Z,99501.01
2019-02-14T22:44:03.344Z,99500.58
2019-02-14T22:46:04.956Z,99503.97
2019-02-14T22:48:06.596Z,99501.86
2019-02-14T22:50:08.194Z,99496.76
2019-02-14T22:52:09.777Z,99505.27
2019-02-14T22:54:11.384Z,99503.57
2019-02-14T22:56:12.978Z,99503.13
2019-02-14T22:58:14.577Z,99509.95
2019-02-14T23:00:16.197Z,99509.10
2019-02-14T23:02:17.794Z,99516.79
2019-02-14T23:04:19.383Z,99508.25
2019-02-14T23:06:20.998Z,99510.39
2019-02-14T23:08:22.608Z,99515.92
2019-02-14T23:10:24.214Z,99517.62
2019-02-14T23:12:25.879Z,99515.52
2019-02-14T23:14:27.506Z,99518.48
2019-02-14T23:16:29.142Z,99517.62
2019-02-14T23:18:30.737Z,99515.92
2019-02-14T23:20:32.340Z,99515.49
2019-02-14T23:22:33.947Z,99516.36
2019-02-14T23:24:35.572Z,99518.50
2019-02-14T23:26:37.187Z,99515.08
2019-02-14T23:28:38.781Z,99515.93
2019-02-14T23:30:40.410Z,99515.50
2019-02-14T23:32:42.015Z,99515.51
2019-02-14T23:34:43.610Z,99520.20
2019-02-14T23:36:45.220Z,99522.76
2019-02-14T23:38:46.818Z,99517.20
2019-02-14T23:40:48.400Z,99516.36
2019-02-14T23:42:50.029Z,99519.75
2019-02-14T23:44:51.639Z,99515.94
2019-02-14T23:46:53.233Z,99519.34
2019-02-14T23:48:54.831Z,99517.64